createdAt,value
2023-01-29T00:00:14.185Z,48.62
2023-01-29T00:02:42.742Z,48.81
2023-01-29T00:05:26.648Z,48.75
2023-01-29T00:07:58.047Z,48.70
2023-01-29T00:10:27.181Z,48.88
2023-01-29T00:12:55.706Z,48.87
2023-01-29T00:15:23.858Z,48.79
2023-01-29T00:17:51.953Z,48.91
2023-01-29T00:20:20.832Z,48.93
2023-01-29T00:22:49.023Z,48.86
2023-01-29T00:25:18.575Z,48.83
2023-01-29T00:27:46.742Z,48.84
2023-01-29T00:30:19.234Z,48.76
2023-01-29T00:32:48.288Z,48.85
2023-01-29T00:35:16.365Z,49.00
2023-01-29T00:37:44.471Z,48.91
2023-01-29T00:40:13.453Z,48.84
2023-01-29T00:43:17.342Z,49.00
2023-01-29T00:45:45.373Z,48.95
2023-01-29T00:48:13.487Z,48.79
2023-01-29T00:50:41.907Z,48.91
2023-01-29T00:53:10.339Z,48.93
2023-01-29T00:55:38.432Z,48.84
2023-01-29T00:58:07.939Z,48.94
2023-01-29T01:00:36.121Z,48.93
2023-01-29T01:03:06.207Z,48.89
2023-01-29T01:05:34.462Z,48.78
2023-01-29T01:08:02.813Z,48.79
2023-01-29T01:10:32.776Z,48.90
2023-01-29T01:13:03.126Z,48.98
2023-01-29T01:15:35.564Z,48.93
2023-01-29T01:18:04.604Z,48.79
2023-01-29T01:20:36.013Z,48.90
2023-01-29T01:23:04.466Z,48.93
2023-01-29T01:25:32.523Z,48.93
2023-01-29T01:30:29.083Z,48.89
2023-01-29T01:32:58.863Z,49.06
2023-01-29T01:35:26.946Z,48.99
2023-01-29T01:37:55.327Z,49.07
2023-01-29T01:40:24.601Z,48.92
2023-01-29T01:42:54.506Z,49.04
2023-01-29T01:45:27.155Z,48.85
2023-01-29T01:48:00.869Z,49.08
2023-01-29T01:50:35.339Z,49.04
2023-01-29T01:53:07.991Z,49.03
2023-01-29T01:55:43.116Z,49.07
2023-01-29T01:58:16.810Z,48.92
2023-01-29T02:00:45.029Z,48.78
2023-01-29T02:03:32.510Z,49.03
2023-01-29T02:06:19.274Z,49.15
2023-01-29T02:09:11.745Z,48.98
2023-01-29T02:11:40.102Z,48.85
2023-01-29T02:14:08.507Z,49.00
2023-01-29T02:16:37.625Z,48.79
2023-01-29T02:19:12.400Z,48.71
2023-01-29T02:22:07.773Z,48.77
2023-01-29T02:25:10.019Z,48.68
2023-01-29T02:28:12.083Z,48.81
2023-01-29T02:30:50.764Z,48.88
2023-01-29T02:33:27.406Z,48.90
2023-01-29T02:36:00.495Z,48.69
2023-01-29T02:38:31.955Z,48.75
2023-01-29T02:41:05.412Z,48.88
2023-01-29T02:43:45.417Z,48.92
2023-01-29T02:46:20.989Z,48.70
2023-01-29T02:48:58.835Z,48.75
2023-01-29T02:51:33.423Z,48.71
2023-01-29T02:54:06.204Z,48.91
2023-01-29T02:56:41.223Z,48.66
2023-01-29T02:59:17.613Z,49.01
2023-01-29T03:01:51.212Z,48.86
2023-01-29T03:04:21.962Z,48.93
2023-01-29T03:06:54.301Z,48.86
2023-01-29T03:09:29.303Z,48.97
2023-01-29T03:12:19.978Z,48.72
2023-01-29T03:15:09.744Z,48.89
2023-01-29T03:17:42.880Z,48.70
2023-01-29T03:20:17.805Z,48.57
2023-01-29T03:22:52.162Z,48.90
2023-01-29T03:25:41.311Z,49.03
2023-01-29T03:28:31.126Z,48.75
2023-01-29T03:31:23.204Z,48.88
2023-01-29T03:33:55.943Z,48.76
2023-01-29T03:36:38.364Z,48.80
2023-01-29T03:39:09.442Z,48.81
2023-01-29T03:41:47.635Z,48.79
2023-01-29T03:44:21.664Z,48.78
2023-01-29T03:46:57.664Z,48.67
2023-01-29T03:49:36.111Z,48.86
2023-01-29T03:52:09.745Z,48.67
2023-01-29T03:54:46.825Z,48.85
2023-01-29T03:57:23.950Z,48.73
2023-01-29T04:00:04.468Z,48.86
2023-01-29T04:02:39.950Z,48.71
2023-01-29T04:05:15.044Z,48.82
2023-01-29T04:07:45.662Z,48.85
2023-01-29T04:10:19.038Z,48.74
2023-01-29T04:12:53.534Z,48.82
2023-01-29T04:15:25.175Z,48.80
2023-01-29T04:17:57.407Z,48.90
2023-01-29T04:20:26.211Z,48.65
2023-01-29T04:22:54.563Z,48.91
2023-01-29T04:25:28.999Z,49.00
2023-01-29T04:28:06.221Z,48.89
2023-01-29T04:30:46.889Z,48.79
2023-01-29T04:33:32.589Z,48.85
2023-01-29T04:36:15.092Z,48.42
2023-01-29T04:38:55.591Z,49.01
2023-01-29T04:41:27.072Z,48.80
2023-01-29T04:44:01.573Z,49.34
2023-01-29T04:46:36.797Z,49.70
2023-01-29T04:49:19.340Z,49.93
2023-01-29T04:51:57.322Z,49.91
2023-01-29T04:54:35.715Z,49.54
2023-01-29T04:57:10.399Z,49.51
2023-01-29T04:59:43.854Z,49.67
2023-01-29T05:02:13.762Z,49.44
2023-01-29T05:04:46.658Z,49.39
2023-01-29T05:07:20.154Z,49.39
2023-01-29T05:09:49.576Z,49.09
2023-01-29T05:12:19.011Z,49.22
2023-01-29T05:14:50.381Z,49.03
2023-01-29T05:17:21.576Z,48.95
2023-01-29T05:19:52.306Z,49.00
2023-01-29T05:22:22.827Z,48.91
2023-01-29T05:24:51.531Z,48.72
2023-01-29T05:27:40.018Z,48.55
2023-01-29T05:30:10.345Z,48.38
2023-01-29T05:32:39.747Z,48.39
2023-01-29T05:35:09.684Z,48.37
2023-01-29T05:37:37.741Z,48.27
2023-01-29T05:40:18.107Z,48.21
2023-01-29T05:42:46.588Z,48.01
2023-01-29T05:45:14.746Z,47.97
2023-01-29T05:47:42.875Z,48.00
2023-01-29T05:50:13.966Z,47.88
2023-01-29T05:52:42.605Z,47.81
2023-01-29T05:55:11.519Z,47.86
2023-01-29T05:57:41.421Z,47.81
2023-01-29T06:00:13.084Z,47.73
2023-01-29T06:02:41.895Z,47.83
2023-01-29T06:05:11.884Z,47.53
2023-01-29T06:07:45.110Z,47.51
2023-01-29T06:10:15.126Z,47.44
2023-01-29T06:12:45.238Z,47.19
2023-01-29T06:15:15.392Z,47.33
2023-01-29T06:17:44.105Z,47.48
2023-01-29T06:20:15.475Z,47.17
2023-01-29T06:22:43.900Z,47.09
2023-01-29T06:25:11.993Z,47.16
2023-01-29T06:27:40.265Z,46.97
2023-01-29T06:30:10.374Z,46.92
2023-01-29T06:32:38.639Z,46.82
2023-01-29T06:35:07.708Z,46.79
2023-01-29T06:37:37.514Z,46.58
2023-01-29T06:40:06.663Z,46.70
2023-01-29T06:42:36.358Z,46.65
2023-01-29T06:45:06.296Z,46.70
2023-01-29T06:47:34.327Z,46.62
2023-01-29T06:50:03.332Z,46.64
2023-01-29T06:52:31.625Z,46.49
2023-01-29T06:55:01.005Z,46.71
2023-01-29T06:57:30.694Z,46.66
2023-01-29T06:59:59.723Z,46.70
2023-01-29T07:02:28.041Z,46.51
2023-01-29T07:04:56.139Z,46.56
2023-01-29T07:07:24.251Z,46.55
2023-01-29T07:09:52.583Z,46.42
2023-01-29T07:12:22.146Z,46.38
2023-01-29T07:14:50.211Z,46.45
2023-01-29T07:17:18.305Z,46.36
2023-01-29T07:19:46.587Z,46.44
2023-01-29T07:22:14.808Z,46.50
2023-01-29T07:24:43.128Z,46.50
2023-01-29T07:27:11.537Z,46.55
2023-01-29T07:29:41.231Z,46.56
2023-01-29T07:32:09.299Z,46.44
2023-01-29T07:34:37.381Z,46.42
2023-01-29T07:37:06.261Z,46.52
2023-01-29T07:39:34.661Z,46.36
2023-01-29T07:42:03.479Z,46.44
2023-01-29T07:44:31.579Z,46.62
2023-01-29T07:47:01.031Z,46.60
2023-01-29T07:49:29.141Z,46.80
2023-01-29T07:51:57.360Z,46.61
2023-01-29T07:54:25.497Z,46.77
2023-01-29T07:56:53.603Z,46.66
2023-01-29T07:59:21.695Z,46.62
2023-01-29T08:01:49.869Z,46.31
2023-01-29T08:04:19.373Z,46.39
2023-01-29T08:06:47.432Z,46.43
2023-01-29T08:09:15.883Z,46.37
2023-01-29T08:11:44.133Z,46.21
2023-01-29T08:14:12.285Z,46.15
2023-01-29T08:16:40.380Z,46.11
2023-01-29T08:19:08.483Z,46.15
2023-01-29T08:21:37.929Z,46.18
2023-01-29T08:24:07.279Z,46.11
2023-01-29T08:26:35.441Z,46.25
2023-01-29T08:29:03.618Z,46.23
2023-01-29T08:31:31.877Z,46.15
2023-01-29T08:33:59.998Z,46.12
2023-01-29T08:36:28.167Z,46.27
2023-01-29T08:38:57.607Z,46.17
2023-01-29T08:41:25.706Z,46.24
2023-01-29T08:43:53.734Z,46.19
2023-01-29T08:46:21.837Z,46.47
2023-01-29T08:48:49.944Z,46.35
2023-01-29T08:51:18.586Z,46.23
2023-01-29T08:53:46.792Z,46.44
2023-01-29T08:56:17.407Z,46.09
2023-01-29T08:58:45.564Z,46.14
2023-01-29T09:01:15.248Z,46.11
2023-01-29T09:03:44.503Z,46.24
2023-01-29T09:06:13.959Z,46.06
2023-01-29T09:08:42.659Z,46.22
2023-01-29T09:11:11.234Z,46.14
2023-01-29T09:13:40.672Z,46.09
2023-01-29T09:16:09.303Z,46.29
2023-01-29T09:18:40.929Z,46.21
2023-01-29T09:21:09.366Z,46.21
2023-01-29T09:23:38.088Z,46.36
2023-01-29T09:26:08.118Z,46.36
2023-01-29T09:28:36.503Z,46.29
2023-01-29T09:31:06.923Z,46.38
2023-01-29T09:33:35.027Z,46.48
2023-01-29T09:36:04.561Z,46.68
2023-01-29T09:38:32.754Z,46.68
2023-01-29T09:41:10.767Z,46.83
2023-01-29T09:43:47.163Z,46.93
2023-01-29T09:46:24.522Z,47.02
2023-01-29T09:49:01.296Z,48.41
2023-01-29T09:51:35.146Z,48.26
2023-01-29T09:54:14.546Z,48.10
2023-01-29T09:56:44.673Z,47.82
2023-01-29T09:59:15.276Z,47.80
2023-01-29T10:01:55.976Z,47.72
2023-01-29T10:04:40.737Z,47.69
2023-01-29T10:07:32.815Z,47.58
2023-01-29T10:10:20.683Z,48.17
2023-01-29T10:12:59.657Z,51.33
2023-01-29T10:15:44.068Z,52.25
2023-01-29T10:18:34.591Z,51.74
2023-01-29T10:21:15.942Z,51.20
2023-01-29T10:23:50.130Z,51.09
2023-01-29T10:26:22.265Z,51.36
2023-01-29T10:28:53.465Z,50.22
2023-01-29T10:31:27.821Z,49.82
2023-01-29T10:34:03.125Z,49.61
2023-01-29T10:36:37.895Z,49.33
2023-01-29T10:39:06.347Z,49.71
2023-01-29T10:41:55.780Z,49.11
2023-01-29T10:44:38.600Z,48.66
2023-01-29T10:47:30.558Z,52.35
2023-01-29T10:50:16.632Z,52.10
2023-01-29T10:52:58.669Z,56.98
2023-01-29T10:55:43.151Z,59.17
2023-01-29T10:58:20.567Z,55.33
2023-01-29T11:00:53.520Z,57.92
2023-01-29T11:03:28.634Z,56.49
2023-01-29T11:06:11.627Z,55.61
2023-01-29T11:08:44.615Z,55.66
2023-01-29T11:11:14.981Z,55.65
2023-01-29T11:13:47.708Z,55.08
2023-01-29T11:16:15.958Z,54.83
2023-01-29T11:18:52.717Z,54.45
2023-01-29T11:21:22.993Z,53.80
2023-01-29T11:23:51.284Z,53.56
2023-01-29T11:26:22.303Z,53.27
2023-01-29T11:28:51.503Z,53.80
2023-01-29T11:31:23.756Z,54.65
2023-01-29T11:33:55.701Z,54.81
2023-01-29T11:36:33.990Z,54.35
2023-01-29T11:39:21.415Z,54.12
2023-01-29T11:41:54.110Z,53.91
2023-01-29T11:44:28.922Z,53.90
2023-01-29T11:46:59.874Z,54.21
2023-01-29T11:49:34.917Z,53.60
2023-01-29T11:52:06.420Z,52.42
2023-01-29T11:54:39.413Z,51.71
2023-01-29T11:57:24.414Z,51.67
2023-01-29T11:59:54.382Z,51.96
2023-01-29T12:02:28.198Z,52.29
2023-01-29T12:04:57.680Z,52.66
2023-01-29T12:07:27.626Z,52.21
2023-01-29T12:09:58.484Z,51.51
2023-01-29T12:12:41.613Z,52.30
2023-01-29T12:15:20.034Z,52.52
2023-01-29T12:18:07.188Z,51.38
2023-01-29T12:20:41.432Z,51.50
2023-01-29T12:23:25.092Z,51.47
2023-01-29T12:26:01.799Z,51.33
2023-01-29T12:28:45.780Z,51.57
2023-01-29T12:31:25.325Z,51.22
2023-01-29T12:34:01.264Z,51.10
2023-01-29T12:36:34.616Z,50.96
2023-01-29T12:39:03.876Z,50.85
2023-01-29T12:41:42.996Z,50.71
2023-01-29T12:44:16.990Z,50.54
2023-01-29T12:46:50.510Z,50.31
2023-01-29T12:49:23.543Z,50.33
2023-01-29T12:51:59.108Z,50.10
2023-01-29T12:54:36.373Z,50.07
2023-01-29T12:57:09.765Z,49.95
2023-01-29T12:59:43.904Z,49.77
2023-01-29T13:02:24.638Z,49.54
2023-01-29T13:05:00.410Z,49.41
2023-01-29T13:07:33.599Z,49.30
2023-01-29T13:10:09.229Z,49.18
2023-01-29T13:12:40.296Z,49.05
2023-01-29T13:15:22.843Z,48.93
2023-01-29T13:17:55.598Z,48.75
2023-01-29T13:20:29.998Z,48.66
2023-01-29T13:23:05.729Z,48.49
2023-01-29T13:25:35.252Z,48.48
2023-01-29T13:28:04.091Z,48.37
2023-01-29T13:30:35.194Z,48.32
2023-01-29T13:33:12.866Z,48.41
2023-01-29T13:35:46.137Z,48.40
2023-01-29T13:38:26.617Z,48.36
2023-01-29T13:41:01.751Z,48.09
2023-01-29T13:43:35.355Z,48.12
2023-01-29T13:46:10.800Z,48.16
2023-01-29T13:48:48.188Z,47.96
2023-01-29T13:51:21.272Z,47.91
2023-01-29T13:53:55.028Z,47.96
2023-01-29T13:56:44.153Z,47.61
2023-01-29T13:59:23.368Z,47.52
2023-01-29T14:02:04.514Z,47.51
2023-01-29T14:04:34.212Z,47.67
2023-01-29T14:07:04.217Z,47.40
2023-01-29T14:10:04.917Z,47.33
2023-01-29T14:12:54.405Z,46.96
2023-01-29T14:15:34.499Z,47.02
2023-01-29T14:18:15.790Z,46.69
2023-01-29T14:20:55.248Z,46.76
2023-01-29T14:23:30.023Z,46.57
2023-01-29T14:25:59.978Z,46.52
2023-01-29T14:28:31.866Z,46.15
2023-01-29T14:31:00.729Z,46.10
2023-01-29T14:33:34.981Z,45.90
2023-01-29T14:36:07.213Z,45.80
2023-01-29T14:38:36.327Z,45.75
2023-01-29T14:41:20.687Z,45.66
2023-01-29T14:43:50.441Z,45.46
2023-01-29T14:46:43.336Z,45.22
2023-01-29T14:49:11.985Z,45.47
2023-01-29T14:51:44.422Z,45.61
2023-01-29T14:54:22.551Z,45.21
2023-01-29T14:56:59.085Z,45.22
2023-01-29T14:59:34.149Z,44.89
2023-01-29T15:02:06.519Z,45.00
2023-01-29T15:04:42.228Z,44.84
2023-01-29T15:07:23.088Z,44.73
2023-01-29T15:10:13.268Z,44.86
2023-01-29T15:12:49.771Z,44.77
2023-01-29T15:15:27.425Z,44.83
2023-01-29T15:18:02.855Z,44.72
2023-01-29T15:20:33.905Z,44.84
2023-01-29T15:23:04.741Z,44.69
2023-01-29T15:25:37.730Z,44.66
2023-01-29T15:28:10.233Z,44.69
2023-01-29T15:30:40.138Z,44.51
2023-01-29T15:33:11.617Z,44.92
2023-01-29T15:35:41.878Z,44.38
2023-01-29T15:38:18.447Z,44.40
2023-01-29T15:40:53.475Z,44.77
2023-01-29T15:43:23.568Z,46.33
2023-01-29T15:45:55.042Z,47.29
2023-01-29T15:48:35.694Z,47.75
2023-01-29T15:51:07.363Z,48.93
2023-01-29T15:53:39.200Z,50.33
2023-01-29T15:56:10.195Z,49.85
2023-01-29T15:58:40.352Z,49.79
2023-01-29T16:01:12.049Z,50.39
2023-01-29T16:03:41.428Z,51.48
2023-01-29T16:06:09.595Z,51.49
2023-01-29T16:08:40.647Z,51.93
2023-01-29T16:11:11.132Z,51.40
2023-01-29T16:13:43.256Z,52.01
2023-01-29T16:16:26.503Z,51.84
2023-01-29T16:19:00.521Z,52.23
2023-01-29T16:21:34.113Z,52.38
2023-01-29T16:24:07.492Z,52.38
2023-01-29T16:26:38.771Z,52.11
2023-01-29T16:29:09.108Z,51.43
2023-01-29T16:31:39.856Z,52.04
2023-01-29T16:34:11.143Z,51.72
2023-01-29T16:36:45.372Z,51.26
2023-01-29T16:39:20.072Z,50.74
2023-01-29T16:42:20.402Z,50.22
2023-01-29T16:44:52.912Z,49.87
2023-01-29T16:47:28.474Z,50.01
2023-01-29T16:49:57.904Z,49.61
2023-01-29T16:52:28.773Z,49.91
2023-01-29T16:55:03.339Z,49.47
2023-01-29T16:57:34.601Z,49.64
2023-01-29T17:00:15.810Z,49.46
2023-01-29T17:02:45.816Z,49.11
2023-01-29T17:05:24.000Z,48.86
2023-01-29T17:07:53.151Z,48.65
2023-01-29T17:10:23.040Z,49.03
2023-01-29T17:12:57.301Z,48.72
2023-01-29T17:15:36.232Z,48.80
2023-01-29T17:18:17.614Z,48.94
2023-01-29T17:20:46.172Z,50.19
2023-01-29T17:23:14.801Z,51.00
2023-01-29T17:25:43.877Z,51.71
2023-01-29T17:28:13.899Z,51.32
2023-01-29T17:30:44.647Z,51.42
2023-01-29T17:33:16.844Z,52.35
2023-01-29T17:35:46.529Z,52.88
2023-01-29T17:38:25.929Z,54.01
2023-01-29T17:40:59.177Z,54.08
2023-01-29T17:43:27.677Z,53.87
2023-01-29T17:45:56.101Z,54.37
2023-01-29T17:48:27.876Z,54.05
2023-01-29T17:50:58.543Z,53.59
2023-01-29T17:53:43.276Z,54.47
2023-01-29T17:56:18.205Z,53.19
2023-01-29T17:58:47.195Z,53.86
2023-01-29T18:01:15.698Z,54.07
2023-01-29T18:03:45.640Z,53.75
2023-01-29T18:06:24.179Z,53.66
2023-01-29T18:08:52.817Z,53.64
2023-01-29T18:11:21.207Z,53.05
2023-01-29T18:13:49.643Z,52.83
2023-01-29T18:16:18.869Z,53.02
2023-01-29T18:18:48.929Z,51.83
2023-01-29T18:21:17.530Z,51.45
2023-01-29T18:23:46.057Z,51.22
2023-01-29T18:26:17.394Z,50.84
2023-01-29T18:28:45.844Z,50.63
2023-01-29T18:31:14.599Z,50.48
2023-01-29T18:33:43.232Z,50.68
2023-01-29T18:36:12.995Z,51.57
2023-01-29T18:38:41.493Z,51.54
2023-01-29T18:41:11.564Z,50.49
2023-01-29T18:43:41.670Z,50.38
2023-01-29T18:46:10.735Z,49.88
2023-01-29T18:48:41.598Z,49.38
2023-01-29T18:51:12.224Z,49.10
2023-01-29T18:53:41.287Z,49.08
2023-01-29T18:56:10.905Z,49.07
2023-01-29T18:58:40.156Z,48.87
2023-01-29T19:01:11.932Z,48.78
2023-01-29T19:03:41.644Z,47.90
2023-01-29T19:06:12.942Z,47.91
2023-01-29T19:08:42.967Z,47.24
2023-01-29T19:11:12.666Z,46.92
2023-01-29T19:13:42.832Z,46.90
2023-01-29T19:16:13.513Z,46.63
2023-01-29T19:18:42.482Z,46.68
2023-01-29T19:21:14.477Z,46.74
2023-01-29T19:23:43.495Z,46.68
2023-01-29T19:26:12.157Z,46.72
2023-01-29T19:28:42.134Z,46.60
2023-01-29T19:31:11.403Z,46.71
2023-01-29T19:33:40.731Z,47.24
2023-01-29T19:36:09.969Z,47.17
2023-01-29T19:38:40.065Z,47.16
2023-01-29T19:41:08.595Z,47.06
2023-01-29T19:43:38.243Z,47.34
2023-01-29T19:46:07.510Z,47.08
2023-01-29T19:48:36.363Z,46.84
2023-01-29T19:51:08.447Z,46.98
2023-01-29T19:53:39.526Z,46.60
2023-01-29T19:56:10.071Z,46.75
2023-01-29T19:58:39.281Z,47.00
2023-01-29T20:01:15.579Z,47.13
2023-01-29T20:03:46.512Z,47.08
2023-01-29T20:06:17.132Z,47.11
2023-01-29T20:08:47.338Z,46.97
2023-01-29T20:11:16.556Z,46.91
2023-01-29T20:13:48.871Z,46.62
2023-01-29T20:16:17.685Z,46.47
2023-01-29T20:18:46.252Z,46.39
2023-01-29T20:21:16.791Z,46.29
2023-01-29T20:23:46.577Z,46.19
2023-01-29T20:26:16.851Z,46.20
2023-01-29T20:28:47.776Z,46.06
2023-01-29T20:31:17.190Z,46.04
2023-01-29T20:33:45.972Z,46.15
2023-01-29T20:36:15.094Z,45.98
2023-01-29T20:38:43.725Z,45.98
2023-01-29T20:41:15.308Z,46.02
2023-01-29T20:43:43.888Z,45.97
2023-01-29T20:46:13.115Z,46.05
2023-01-29T20:48:49.090Z,46.08
2023-01-29T20:51:18.698Z,46.08
2023-01-29T20:53:48.638Z,45.83
2023-01-29T20:56:18.881Z,45.81
2023-01-29T20:59:08.310Z,44.95
2023-01-29T21:01:36.683Z,45.15
2023-01-29T21:04:05.075Z,45.47
2023-01-29T21:06:33.568Z,45.71
2023-01-29T21:09:01.957Z,45.30
2023-01-29T21:11:33.409Z,45.44
2023-01-29T21:14:01.989Z,45.34
2023-01-29T21:16:30.752Z,45.45
2023-01-29T21:18:59.826Z,45.45
2023-01-29T21:21:28.434Z,45.50
2023-01-29T21:23:56.488Z,45.63
2023-01-29T21:26:25.126Z,45.74
2023-01-29T21:28:55.963Z,45.72
2023-01-29T21:31:24.365Z,45.91
2023-01-29T21:33:52.787Z,45.68
2023-01-29T21:36:21.081Z,45.64
2023-01-29T21:38:49.188Z,45.65
2023-01-29T21:41:17.301Z,45.68
2023-01-29T21:43:45.112Z,45.70
2023-01-29T21:46:16.107Z,45.76
2023-01-29T21:48:44.663Z,45.72
2023-01-29T21:51:13.302Z,45.94
2023-01-29T21:53:41.361Z,45.64
2023-01-29T21:56:09.599Z,45.80
2023-01-29T21:58:37.715Z,45.85
2023-01-29T22:01:36.114Z,45.79
2023-01-29T22:03:57.090Z,45.96
2023-01-29T22:06:25.980Z,45.84
2023-01-29T22:08:54.073Z,45.93
2023-01-29T22:11:22.495Z,45.91
2023-01-29T22:13:50.599Z,45.91
2023-01-29T22:16:18.672Z,45.78
2023-01-29T22:18:46.877Z,45.73
2023-01-29T22:21:16.521Z,45.97
2023-01-29T22:23:45.267Z,45.71
2023-01-29T22:26:13.334Z,45.75
2023-01-29T22:28:41.434Z,46.03
2023-01-29T22:31:09.742Z,45.98
2023-01-29T22:33:37.946Z,45.89
2023-01-29T22:36:06.800Z,45.75
2023-01-29T22:38:36.412Z,45.61
2023-01-29T22:41:05.485Z,45.76
2023-01-29T22:43:33.742Z,45.82
2023-01-29T22:46:01.891Z,45.82
2023-01-29T22:48:30.588Z,45.75
2023-01-29T22:51:09.959Z,45.83
2023-01-29T22:53:41.390Z,45.98
2023-01-29T22:56:10.465Z,45.96
2023-01-29T22:58:41.098Z,45.61
2023-01-29T23:01:10.349Z,45.61
2023-01-29T23:03:38.473Z,45.72
2023-01-29T23:06:06.698Z,45.58
2023-01-29T23:08:34.836Z,45.69
2023-01-29T23:11:15.014Z,45.45
2023-01-29T23:13:44.524Z,45.81
2023-01-29T23:16:13.120Z,45.46
2023-01-29T23:18:41.791Z,45.83
2023-01-29T23:21:10.776Z,45.61
2023-01-29T23:23:39.580Z,45.57
2023-01-29T23:26:28.776Z,45.53
2023-01-29T23:28:57.018Z,45.44
2023-01-29T23:31:25.795Z,45.79
2023-01-29T23:33:53.946Z,45.58
2023-01-29T23:36:22.068Z,45.54
2023-01-29T23:38:50.255Z,45.74
2023-01-29T23:41:19.888Z,45.76
2023-01-29T23:43:47.951Z,45.57
2023-01-29T23:46:16.134Z,45.62
2023-01-29T23:48:44.563Z,45.74
2023-01-29T23:51:12.656Z,45.80
2023-01-29T23:53:41.206Z,45.56
2023-01-29T23:56:09.361Z,45.52
2023-01-29T23:58:39.158Z,45.83
